Time;durP1;ratioP1;P1;durP2;ratioP2;P2;SDS_P1;SDS_P2;PMS_P1;PMS_P2;Temp;Humidity;BMP_temperature;BMP_pressure;BME280_temperature;BME280_humidity;BME280_pressure;Samples;Min_cycle;Max_cycle;Signal;HPM_P1;HPM_P2
2021/06/08 00:02:16;;;;;;;15.57;7.82;;;;;;;18.60;69.90;98803.59;5111388;28;20074;-91
2021/06/08 00:04:42;;;;;;;13.38;7.97;;;;;;;18.65;70.46;98821.22;5114668;28;20500;-92
2021/06/08 00:07:08;;;;;;;12.30;8.50;;;;;;;18.48;71.16;98802.50;5116373;28;20042;-93
2021/06/08 00:09:34;;;;;;;12.07;8.75;;;;;;;18.44;71.13;98807.19;5116079;28;20078;-91
2021/06/08 00:12:00;;;;;;;11.13;7.75;;;;;;;18.48;71.51;98816.84;5110105;28;20048;-92
2021/06/08 00:14:26;;;;;;;11.18;8.32;;;;;;;18.38;71.42;98804.00;5115571;28;20055;-93
2021/06/08 00:16:52;;;;;;;12.32;8.38;;;;;;;18.40;71.54;98810.16;5114370;28;20039;-93
2021/06/08 00:19:19;;;;;;;12.75;8.68;;;;;;;18.32;72.24;98807.03;5115799;28;20445;-91
2021/06/08 00:21:45;;;;;;;14.00;8.98;;;;;;;18.25;71.54;98804.69;5114876;28;20122;-90
2021/06/08 00:24:11;;;;;;;13.45;8.88;;;;;;;18.35;71.99;98821.19;5114289;27;20485;-92
2021/06/08 00:26:36;;;;;;;15.05;8.50;;;;;;;18.31;71.37;98813.41;5116172;28;20430;-92
2021/06/08 00:29:03;;;;;;;11.65;7.88;;;;;;;18.24;70.18;98786.84;5114047;28;20157;-93
2021/06/08 00:31:29;;;;;;;10.57;7.60;;;;;;;18.45;70.19;98819.72;5115546;28;20504;-92
2021/06/08 00:33:55;;;;;;;10.70;7.47;;;;;;;18.46;69.81;98821.44;5114595;28;20040;-92
2021/06/08 00:36:22;;;;;;;12.10;8.38;;;;;;;18.47;69.66;98817.78;5116177;28;20043;-92
2021/06/08 00:38:48;;;;;;;11.27;7.40;;;;;;;18.45;69.69;98813.44;5116646;28;20062;-92
2021/06/08 00:41:14;;;;;;;12.13;7.93;;;;;;;18.46;68.82;98813.38;5116413;28;20555;-91
2021/06/08 00:43:40;;;;;;;12.60;7.82;;;;;;;18.54;68.62;98823.69;5115660;28;20123;-93
2021/06/08 00:46:06;;;;;;;10.80;7.20;;;;;;;18.53;68.19;98816.56;5111925;28;20370;-91
2021/06/08 00:48:31;;;;;;;13.35;7.25;;;;;;;18.62;67.74;98826.78;5114942;28;20035;-92
2021/06/08 00:50:57;;;;;;;9.10;6.72;;;;;;;18.69;67.75;98832.66;5113678;28;20035;-91
2021/06/08 00:53:24;;;;;;;10.85;7.38;;;;;;;18.58;68.07;98813.59;5112271;27;20122;-93
2021/06/08 00:55:50;;;;;;;9.73;6.80;;;;;;;18.63;68.03;98830.38;5114607;28;20404;-92
2021/06/08 00:58:16;;;;;;;13.90;8.27;;;;;;;18.51;70.13;98823.00;5112858;28;20028;-91
2021/06/08 01:00:42;;;;;;;12.93;8.77;;;;;;;18.42;70.76;98822.56;5111977;28;20504;-91
2021/06/08 01:03:08;;;;;;;12.73;8.40;;;;;;;18.34;70.80;98821.28;5113183;28;20036;-91
2021/06/08 01:05:34;;;;;;;14.45;8.32;;;;;;;18.32;71.30;98824.06;5113446;28;20040;-91
2021/06/08 01:08:00;;;;;;;13.02;8.80;;;;;;;18.25;71.45;98818.16;5112943;28;20092;-89
2021/06/08 01:10:27;;;;;;;11.68;8.32;;;;;;;18.19;71.93;98826.59;5113239;28;20045;-90
2021/06/08 01:12:53;;;;;;;13.80;8.80;;;;;;;18.14;72.29;98826.00;5113303;28;20043;-92
2021/06/08 01:15:20;;;;;;;12.50;8.60;;;;;;;18.04;72.50;98816.69;5111623;28;20042;-91
2021/06/08 01:17:46;;;;;;;11.57;8.82;;;;;;;17.90;73.20;98822.00;5114976;28;20378;-91
2021/06/08 01:20:14;;;;;;;11.70;8.55;;;;;;;17.81;73.38;98796.47;5114309;28;20031;-91
2021/06/08 01:22:41;;;;;;;12.45;8.15;;;;;;;17.81;73.41;98809.91;5113836;28;20044;-91
2021/06/08 01:25:08;;;;;;;11.02;8.40;;;;;;;17.68;74.07;98811.56;5111535;28;20114;-90
2021/06/08 01:27:34;;;;;;;12.38;8.25;;;;;;;17.71;74.14;98806.84;5112911;28;20123;-90
2021/06/08 01:30:01;;;;;;;11.18;7.85;;;;;;;17.60;73.82;98803.91;5110347;28;20587;-90
2021/06/08 01:32:30;;;;;;;11.85;8.02;;;;;;;17.54;74.26;98796.16;5113621;28;20048;-90
2021/06/08 01:34:56;;;;;;;12.13;8.32;;;;;;;17.52;74.45;98804.34;5111853;28;20039;-92
2021/06/08 01:37:23;;;;;;;12.40;7.90;;;;;;;17.53;74.74;98808.75;5114587;28;20096;-90
2021/06/08 01:39:51;;;;;;;11.73;8.50;;;;;;;17.56;74.32;98811.25;5113672;28;20122;-90
2021/06/08 01:42:17;;;;;;;14.43;8.50;;;;;;;17.57;74.56;98810.31;5114256;28;20120;-91
2021/06/08 01:44:44;;;;;;;10.57;8.38;;;;;;;17.71;73.97;98798.78;5111636;28;20420;-91
2021/06/08 01:47:11;;;;;;;11.60;8.75;;;;;;;17.69;74.58;98803.38;5114244;28;20039;-92
2021/06/08 01:49:36;;;;;;;11.25;8.48;;;;;;;17.54;75.11;98793.47;5113731;28;20036;-92
2021/06/08 01:52:16;;;;;;;12.73;8.75;;;;;;;17.44;75.24;98796.69;5113487;28;20046;-91
2021/06/08 01:54:48;;;;;;;13.68;9.23;;;;;;;17.31;76.18;98787.53;5112276;28;20069;-90
2021/06/08 01:57:19;;;;;;;13.98;9.57;;;;;;;17.41;75.95;98812.09;5113993;28;20039;-91
2021/06/08 01:59:52;;;;;;;15.35;9.75;;;;;;;17.33;76.41;98807.16;5108462;28;20039;-92
2021/06/08 02:02:24;;;;;;;14.10;9.63;;;;;;;17.30;76.74;98806.44;5110618;28;20130;-90
2021/06/08 02:05:01;;;;;;;11.25;8.35;;;;;;;17.27;76.58;98804.78;5110099;28;20035;-91
2021/06/08 02:07:35;;;;;;;19.35;9.80;;;;;;;17.44;75.61;98812.81;5113383;28;20560;-92
2021/06/08 02:10:14;;;;;;;11.18;8.63;;;;;;;17.44;75.85;98812.81;5111959;28;20452;-91
2021/06/08 02:12:46;;;;;;;11.35;8.45;;;;;;;17.45;75.85;98816.34;5114061;28;20050;-92
2021/06/08 02:15:15;;;;;;;12.07;9.18;;;;;;;17.52;75.34;98815.09;5110440;28;20035;-90
2021/06/08 02:17:44;;;;;;;16.52;9.43;;;;;;;17.56;75.27;98811.25;5114110;28;20035;-92
2021/06/08 02:20:15;;;;;;;14.32;9.43;;;;;;;17.56;75.00;98819.31;5113861;28;20096;-89
2021/06/08 02:22:45;;;;;;;13.07;9.05;;;;;;;17.53;74.99;98818.63;5113009;28;20040;-91
2021/06/08 02:25:13;;;;;;;13.10;8.85;;;;;;;17.53;75.09;98822.19;5113460;28;20130;-91
2021/06/08 02:27:44;;;;;;;16.48;9.27;;;;;;;17.48;75.17;98809.94;5113202;28;20043;-91
2021/06/08 02:30:11;;;;;;;14.20;8.75;;;;;;;17.41;75.22;98807.59;5111059;28;20073;-90
2021/06/08 02:32:38;;;;;;;12.85;9.30;;;;;;;17.47;75.64;98818.97;5112494;28;20097;-91
2021/06/08 02:35:06;;;;;;;13.55;8.82;;;;;;;17.35;75.86;98813.31;5112575;28;20043;-90
2021/06/08 02:37:34;;;;;;;11.75;8.63;;;;;;;17.31;75.91;98811.75;5112752;28;20043;-91
2021/06/08 02:40:02;;;;;;;15.23;8.82;;;;;;;17.29;75.92;98819.00;5114175;28;20044;-92
2021/06/08 02:42:27;;;;;;;11.75;8.60;;;;;;;17.29;76.24;98816.31;5113746;28;20067;-90
2021/06/08 02:44:58;;;;;;;13.68;8.38;;;;;;;17.17;76.30;98803.53;5113135;28;20074;-91
2021/06/08 02:47:25;;;;;;;13.85;8.65;;;;;;;17.13;76.48;98812.72;5112281;28;20062;-91
2021/06/08 02:49:52;;;;;;;15.43;8.98;;;;;;;17.04;76.60;98792.56;5117083;28;20032;-91
2021/06/08 02:52:20;;;;;;;12.75;9.05;;;;;;;17.24;76.42;98813.88;5116430;28;20053;-91
2021/06/08 02:54:46;;;;;;;13.53;8.73;;;;;;;17.14;76.45;98798.34;5115625;28;20036;-92
2021/06/08 02:57:13;;;;;;;13.35;9.15;;;;;;;17.19;76.58;98810.56;5116673;27;20036;-92
2021/06/08 02:59:40;;;;;;;12.32;9.02;;;;;;;17.11;76.30;98801.16;5115973;28;20047;-90
2021/06/08 03:02:12;;;;;;;15.55;9.32;;;;;;;17.07;77.28;98815.72;5113981;28;20054;-89
2021/06/08 03:04:45;;;;;;;15.88;9.35;;;;;;;17.00;76.97;98821.44;5116284;28;20388;-91
2021/06/08 03:07:12;;;;;;;11.85;9.27;;;;;;;16.93;77.21;98805.72;5116061;28;20428;-91
2021/06/08 03:09:43;;;;;;;13.93;9.50;;;;;;;17.11;76.91;98830.72;5115951;28;20046;-91
2021/06/08 03:12:11;;;;;;;13.95;9.40;;;;;;;16.94;77.77;98820.91;5117422;28;20092;-91
2021/06/08 03:14:40;;;;;;;13.33;8.67;;;;;;;16.88;77.78;98827.44;5116718;28;20044;-91
2021/06/08 03:17:10;;;;;;;15.32;9.63;;;;;;;17.00;77.73;98842.03;5115452;28;20489;-89
2021/06/08 03:19:41;;;;;;;16.35;8.73;;;;;;;17.04;77.67;98833.75;5116439;28;20031;-91
2021/06/08 03:22:10;;;;;;;14.93;9.55;;;;;;;17.05;77.33;98821.19;5115113;28;20057;-90
2021/06/08 03:24:39;;;;;;;13.23;9.10;;;;;;;17.12;76.99;98817.22;5115834;28;20088;-90
2021/06/08 03:27:06;;;;;;;16.00;10.00;;;;;;;17.24;76.66;98829.16;5115934;28;20039;-90
2021/06/08 03:29:34;;;;;;;16.17;11.48;;;;;;;17.33;76.83;98833.16;5117289;28;20043;-91
2021/06/08 03:32:01;;;;;;;15.75;11.10;;;;;;;17.34;76.67;98834.88;5111913;28;20446;-92
2021/06/08 03:34:30;;;;;;;13.60;9.52;;;;;;;17.34;76.81;98818.75;5117461;28;20092;-90
2021/06/08 03:36:57;;;;;;;15.50;9.95;;;;;;;17.39;76.43;98825.63;5117292;28;20036;-89
2021/06/08 03:39:26;;;;;;;13.43;9.18;;;;;;;17.35;76.14;98824.06;5117136;28;20055;-92
2021/06/08 03:41:52;;;;;;;11.87;8.93;;;;;;;17.36;76.45;98841.06;5116966;27;20036;-90
2021/06/08 03:44:19;;;;;;;12.98;8.82;;;;;;;17.25;76.47;98828.19;5116934;28;20397;-91
2021/06/08 03:46:45;;;;;;;12.85;9.05;;;;;;;17.15;76.72;98832.31;5110616;28;20089;-91
2021/06/08 03:49:12;;;;;;;13.38;9.25;;;;;;;17.13;76.92;98836.88;5117180;28;20442;-91
2021/06/08 03:51:40;;;;;;;12.93;9.82;;;;;;;17.16;76.72;98842.13;5116753;28;20050;-91
2021/06/08 03:54:09;;;;;;;13.15;9.77;;;;;;;17.20;76.81;98835.63;5117258;28;20054;-91
2021/06/08 03:56:37;;;;;;;12.55;9.63;;;;;;;17.23;77.02;98844.38;5116466;27;20047;-89
2021/06/08 03:59:03;;;;;;;14.30;9.38;;;;;;;17.27;77.26;98855.84;5111239;28;20063;-91
2021/06/08 04:01:34;;;;;;;14.90;9.50;;;;;;;17.30;76.44;98852.13;5114405;27;20044;-91
2021/06/08 04:04:01;;;;;;;14.90;9.38;;;;;;;17.29;76.86;98853.94;5116565;28;20044;-91
2021/06/08 04:06:27;;;;;;;15.65;10.05;;;;;;;17.38;77.31;98857.97;5116765;28;20043;-91
2021/06/08 04:08:54;;;;;;;15.45;9.70;;;;;;;17.42;76.92;98854.16;5116284;28;20511;-91
2021/06/08 04:11:20;;;;;;;16.33;9.10;;;;;;;17.45;77.00;98857.53;5116365;28;20088;-91
2021/06/08 04:13:46;;;;;;;14.25;10.05;;;;;;;17.41;76.73;98849.72;5116554;28;20039;-93
2021/06/08 04:16:12;;;;;;;20.45;10.85;;;;;;;17.56;76.23;98856.97;5114231;28;20039;-90
2021/06/08 04:18:39;;;;;;;14.38;10.25;;;;;;;17.55;75.64;98846.31;5115549;28;20043;-89
2021/06/08 04:21:05;;;;;;;18.60;10.30;;;;;;;17.71;75.34;98859.78;5114988;28;20046;-92
2021/06/08 04:23:32;;;;;;;15.93;10.85;;;;;;;17.73;75.13;98858.75;5115775;28;20088;-92
2021/06/08 04:26:00;;;;;;;19.98;10.60;;;;;;;17.84;74.71;98866.25;5115962;28;20035;-90
2021/06/08 04:28:27;;;;;;;19.73;10.23;;;;;;;17.84;74.66;98868.94;5115903;28;20122;-90
2021/06/08 04:30:54;;;;;;;20.13;10.55;;;;;;;17.75;74.61;98851.44;5114261;28;20039;-90
2021/06/08 04:33:21;;;;;;;18.95;10.60;;;;;;;17.86;74.31;98875.97;5117351;28;20122;-90
2021/06/08 04:35:47;;;;;;;13.88;9.95;;;;;;;17.78;74.16;98855.78;5116586;28;20036;-91
2021/06/08 04:38:14;;;;;;;17.27;10.68;;;;;;;17.81;73.72;98848.44;5115732;28;20557;-91
2021/06/08 04:40:42;;;;;;;16.15;10.45;;;;;;;17.89;74.00;98864.19;5115559;28;20043;-91
2021/06/08 04:43:10;;;;;;;15.68;9.40;;;;;;;18.03;73.04;98874.19;5116721;28;20036;-90
2021/06/08 04:45:36;;;;;;;14.88;10.32;;;;;;;17.98;73.16;98852.06;5113442;28;20097;-90
2021/06/08 04:48:03;;;;;;;19.25;10.00;;;;;;;17.96;72.85;98852.13;5115356;28;20439;-90
2021/06/08 04:50:29;;;;;;;16.58;9.93;;;;;;;18.05;72.54;98856.13;5115468;27;20039;-93
2021/06/08 04:56:13;;;;;;;18.27;10.88;;;;;;;18.29;72.09;98871.84;5131523;27;20395;-92
2021/06/08 04:58:42;;;;;;;22.48;9.80;;;;;;;18.32;71.59;98861.75;5110357;28;20134;-92
2021/06/08 05:01:16;;;;;;;22.05;9.93;;;;;;;18.44;71.57;98863.75;5108047;28;20036;-91
2021/06/08 05:03:47;;;;;;;19.15;10.00;;;;;;;18.43;71.62;98853.06;5115107;27;20039;-93
2021/06/08 05:06:16;;;;;;;19.15;9.88;;;;;;;18.57;71.10;98861.22;5111555;28;20028;-91
2021/06/08 05:08:47;;;;;;;15.05;8.73;;;;;;;18.59;70.73;98861.13;5111019;28;20042;-91
2021/06/08 05:11:18;;;;;;;14.95;8.73;;;;;;;18.67;70.32;98864.22;5110303;28;20042;-91
2021/06/08 05:13:47;;;;;;;12.82;8.40;;;;;;;18.73;70.37;98869.25;5110873;28;20044;-92
2021/06/08 05:16:13;;;;;;;12.88;8.13;;;;;;;18.52;69.88;98860.63;5111299;28;20036;-92
2021/06/08 05:18:42;;;;;;;9.77;7.22;;;;;;;18.43;69.89;98866.50;5104645;28;20169;-92
2021/06/08 05:21:10;;;;;;;11.38;7.75;;;;;;;18.54;68.92;98863.19;5112607;28;20089;-93
2021/06/08 05:23:37;;;;;;;9.80;7.13;;;;;;;18.57;69.04;98866.59;5111649;28;20507;-94
2021/06/08 05:26:04;;;;;;;14.48;7.45;;;;;;;18.70;69.16;98879.34;5111770;28;20558;-93
2021/06/08 05:28:33;;;;;;;21.02;8.60;;;;;;;18.70;68.56;98874.81;5109706;28;20497;-92
2021/06/08 05:30:59;;;;;;;17.45;7.78;;;;;;;18.92;67.99;98866.38;5108329;28;20044;-94
2021/06/08 05:33:25;;;;;;;12.88;7.40;;;;;;;19.16;66.94;98873.94;5111283;28;20192;-92
2021/06/08 05:35:52;;;;;;;11.98;7.38;;;;;;;19.40;67.39;98888.63;5111648;28;20485;-92
2021/06/08 05:38:28;;;;;;;20.88;10.32;;;;;;;19.53;67.47;98883.34;5112377;27;20043;-93
2021/06/08 05:40:54;;;;;;;20.15;10.40;;;;;;;19.60;67.35;98878.44;5106915;28;20035;-91
2021/06/08 05:43:20;;;;;;;30.17;10.27;;;;;;;19.67;67.24;98874.41;5108829;28;20711;-91
2021/06/08 05:45:49;;;;;;;16.50;9.85;;;;;;;19.63;67.03;98867.47;5106744;28;20408;-93
2021/06/08 05:48:18;;;;;;;18.85;9.40;;;;;;;19.73;66.58;98871.31;5109467;28;20117;-92
2021/06/08 05:50:44;;;;;;;14.35;8.43;;;;;;;19.87;66.08;98868.63;5110400;28;20043;-92
2021/06/08 05:53:10;;;;;;;10.57;7.32;;;;;;;20.07;65.78;98871.88;5109026;28;20039;-92
2021/06/08 05:55:39;;;;;;;15.75;8.38;;;;;;;20.07;65.87;98867.34;5109118;28;20051;-92
2021/06/08 05:58:05;;;;;;;13.40;7.60;;;;;;;20.09;64.72;98862.72;5109593;28;20050;-93
2021/06/08 06:00:33;;;;;;;12.77;7.03;;;;;;;20.28;64.54;98862.41;5107226;28;20039;-92
2021/06/08 06:03:01;;;;;;;19.67;9.25;;;;;;;20.38;62.88;98861.78;5112131;28;20092;-92
2021/06/08 06:05:27;;;;;;;8.23;6.63;;;;;;;20.45;63.37;98861.28;5108377;28;20063;-92
2021/06/08 06:07:53;;;;;;;10.00;7.32;;;;;;;20.33;62.81;98858.53;5097941;28;20038;-92
2021/06/08 06:10:19;;;;;;;12.68;7.20;;;;;;;20.51;63.64;98857.31;5097765;28;20036;-92
2021/06/08 06:12:46;;;;;;;9.48;7.30;;;;;;;20.51;63.18;98855.50;5095795;28;20036;-92
2021/06/08 06:15:12;;;;;;;10.77;7.38;;;;;;;20.64;63.34;98871.75;5093613;28;20043;-92
2021/06/08 06:17:40;;;;;;;10.70;6.90;;;;;;;20.77;62.66;98862.84;5093290;28;20075;-92
2021/06/08 06:20:11;;;;;;;9.98;7.45;;;;;;;20.91;62.39;98869.03;5097267;28;20067;-93
2021/06/08 06:22:38;;;;;;;10.80;7.53;;;;;;;20.77;62.32;98876.34;5097316;28;20123;-93
2021/06/08 06:25:05;;;;;;;15.05;7.97;;;;;;;20.94;62.74;98878.78;5096937;28;20383;-93
2021/06/08 06:27:33;;;;;;;12.07;8.18;;;;;;;20.87;62.94;98878.31;5095387;28;20126;-92
2021/06/08 06:30:00;;;;;;;10.95;7.53;;;;;;;20.96;62.72;98878.69;5093501;28;20078;-93
2021/06/08 06:32:26;;;;;;;10.48;7.75;;;;;;;20.96;62.06;98866.03;5096171;28;20481;-90
2021/06/08 06:34:51;;;;;;;11.43;7.93;;;;;;;21.13;61.24;98864.88;5095164;28;20171;-92
2021/06/08 06:37:22;;;;;;;10.25;7.30;;;;;;;21.31;61.83;98869.00;5094764;28;20497;-92
2021/06/08 06:39:49;;;;;;;9.73;7.75;;;;;;;20.96;61.34;98870.56;5095886;28;20040;-91
2021/06/08 06:42:16;;;;;;;11.77;7.60;;;;;;;21.39;60.74;98871.16;5098962;28;20562;-93
2021/06/08 06:44:43;;;;;;;11.77;6.97;;;;;;;21.52;59.95;98850.44;5096820;28;20055;-92
2021/06/08 06:47:09;;;;;;;9.55;7.18;;;;;;;21.17;60.55;98858.28;5095404;28;20032;-94
2021/06/08 06:49:37;;;;;;;11.40;7.55;;;;;;;21.25;60.15;98842.41;5095831;28;20036;-94
2021/06/08 06:52:04;;;;;;;14.60;7.95;;;;;;;21.48;60.17;98858.88;5096795;28;20497;-93
2021/06/08 06:54:32;;;;;;;13.80;7.50;;;;;;;21.74;59.19;98862.44;5095045;28;20052;-92
2021/06/08 06:57:00;;;;;;;14.70;7.55;;;;;;;21.78;58.92;98857.69;5095510;28;20055;-91
2021/06/08 06:59:26;;;;;;;12.48;8.13;;;;;;;21.04;60.83;98869.06;5095330;28;20079;-94
2021/06/08 07:01:53;;;;;;;12.23;8.65;;;;;;;20.97;61.69;98859.66;5094703;28;20704;-92
2021/06/08 07:04:23;;;;;;;11.57;8.15;;;;;;;21.18;61.65;98856.44;5095033;28;20028;-91
2021/06/08 07:06:49;;;;;;;11.80;8.10;;;;;;;21.20;61.48;98857.19;5095907;28;20044;-93
2021/06/08 07:09:15;;;;;;;10.82;7.75;;;;;;;21.29;61.18;98862.81;5094811;28;20089;-92
2021/06/08 07:11:44;;;;;;;12.45;7.85;;;;;;;21.23;60.46;98862.38;5096522;28;20051;-92
2021/06/08 07:14:11;;;;;;;11.75;8.02;;;;;;;21.33;60.51;98841.84;5095717;28;20040;-93
2021/06/08 07:16:36;;;;;;;17.30;8.05;;;;;;;21.82;60.48;98865.47;5094412;28;20136;-94
2021/06/08 07:19:03;;;;;;;11.55;7.82;;;;;;;21.91;58.95;98853.97;5093679;28;20060;-92
2021/06/08 07:21:29;;;;;;;11.43;7.45;;;;;;;21.61;60.06;98843.50;5104268;28;20047;-91
2021/06/08 07:23:55;;;;;;;11.15;7.50;;;;;;;21.45;60.85;98848.28;5095255;28;20036;-92
2021/06/08 07:26:25;;;;;;;13.88;7.93;;;;;;;21.36;60.80;98854.28;5091281;28;20082;-91
2021/06/08 07:28:54;;;;;;;13.40;8.20;;;;;;;21.32;60.24;98848.25;5094849;28;20497;-91
2021/06/08 07:31:29;;;;;;;9.88;7.40;;;;;;;21.88;59.25;98862.31;5092932;28;20040;-92
2021/06/08 07:34:04;;;;;;;11.32;7.55;;;;;;;21.70;59.20;98850.09;5096258;28;20468;-93
2021/06/08 07:36:40;;;;;;;12.60;8.20;;;;;;;21.35;60.98;98845.31;5096829;28;20040;-92
2021/06/08 07:39:18;;;;;;;11.55;7.75;;;;;;;21.43;60.10;98861.03;5097389;28;20396;-93
2021/06/08 07:41:47;;;;;;;11.82;7.78;;;;;;;21.61;59.98;98857.03;5099606;28;20040;-91
2021/06/08 07:44:18;;;;;;;12.57;8.20;;;;;;;21.70;59.77;98840.13;5095814;28;20036;-91
2021/06/08 07:46:46;;;;;;;13.13;7.75;;;;;;;22.05;59.02;98860.22;5091830;28;20059;-92
2021/06/08 07:49:13;;;;;;;12.05;7.95;;;;;;;22.14;58.51;98846.00;5095805;28;20071;-91
2021/06/08 07:51:41;;;;;;;11.32;7.78;;;;;;;22.25;57.51;98846.13;5095351;28;20553;-93
2021/06/08 07:54:08;;;;;;;11.65;7.28;;;;;;;22.41;57.05;98862.09;5095923;28;20052;-90
2021/06/08 07:56:36;;;;;;;11.13;7.70;;;;;;;21.85;57.80;98861.66;5096613;28;20489;-92
2021/06/08 07:59:05;;;;;;;10.90;7.43;;;;;;;21.77;58.33;98840.53;5095658;28;20036;-92
2021/06/08 08:01:33;;;;;;;12.45;7.72;;;;;;;21.94;58.65;98855.56;5095655;28;20039;-91
2021/06/08 08:03:59;;;;;;;10.70;7.75;;;;;;;21.86;58.54;98855.25;5095035;28;20064;-92
2021/06/08 08:06:25;;;;;;;11.88;7.80;;;;;;;21.71;58.90;98841.88;5094781;28;20081;-92
2021/06/08 08:08:53;;;;;;;10.88;7.25;;;;;;;21.93;58.38;98856.56;5095015;28;20042;-92
2021/06/08 08:11:21;;;;;;;11.02;7.30;;;;;;;21.66;58.75;98835.03;5096667;28;20097;-92
2021/06/08 08:13:48;;;;;;;13.13;7.45;;;;;;;22.04;58.17;98848.53;5095470;28;20081;-93
2021/06/08 08:16:16;;;;;;;11.57;7.50;;;;;;;21.86;58.24;98839.91;5093066;28;20040;-93
2021/06/08 08:18:44;;;;;;;9.83;7.10;;;;;;;22.10;57.91;98868.88;5095024;28;20726;-91
2021/06/08 08:21:13;;;;;;;12.45;7.80;;;;;;;21.62;59.13;98856.06;5094991;28;20044;-94
2021/06/08 08:23:40;;;;;;;11.80;7.90;;;;;;;21.42;60.56;98854.75;5096629;28;20036;-91
2021/06/08 08:26:07;;;;;;;11.85;8.50;;;;;;;21.70;58.52;98855.50;5094896;28;20070;-90
2021/06/08 08:28:34;;;;;;;15.80;8.43;;;;;;;21.31;60.16;98844.66;5095207;28;20055;-93
2021/06/08 08:31:02;;;;;;;13.23;7.55;;;;;;;21.63;59.38;98849.66;5094452;28;20100;-92
2021/06/08 08:33:29;;;;;;;10.55;7.72;;;;;;;21.43;59.61;98853.78;5094878;28;20039;-91
2021/06/08 08:35:58;;;;;;;15.65;8.20;;;;;;;21.55;59.58;98849.34;5091940;28;20032;-92
2021/06/08 08:38:24;;;;;;;;;;;;;;;21.78;59.33;98861.25;5114384;28;20131;-92
2021/06/08 08:40:51;;;;;;;14.05;8.02;;;;;;;21.88;58.55;98861.44;5115279;28;20058;-93
2021/06/08 08:43:18;;;;;;;12.32;7.28;;;;;;;22.06;58.06;98843.00;5114592;28;20035;-91
2021/06/08 08:45:44;;;;;;;8.98;6.60;;;;;;;22.20;57.18;98848.25;5113240;28;20043;-93
2021/06/08 08:48:10;;;;;;;13.60;7.47;;;;;;;21.92;58.88;98844.00;5114460;28;20042;-91
2021/06/08 08:50:36;;;;;;;11.88;8.02;;;;;;;22.11;58.02;98848.94;5115289;27;20036;-92
2021/06/08 08:53:05;;;;;;;10.68;6.90;;;;;;;22.38;57.30;98854.22;5114526;28;20055;-90
2021/06/08 08:55:34;;;;;;;21.40;9.05;;;;;;;22.31;58.18;98853.75;5113988;28;20064;-91
2021/06/08 08:58:05;;;;;;;11.02;6.95;;;;;;;22.54;56.85;98854.78;5115098;28;20044;-91
2021/06/08 09:00:33;;;;;;;10.07;7.38;;;;;;;22.82;56.55;98863.53;5113143;28;20070;-91
2021/06/08 09:03:01;;;;;;;12.07;7.28;;;;;;;22.31;57.13;98840.22;5114052;28;20047;-91
2021/06/08 09:05:28;;;;;;;11.32;7.90;;;;;;;22.69;56.55;98832.94;5113710;28;20039;-90
2021/06/08 09:07:54;;;;;;;10.55;6.97;;;;;;;22.73;56.88;98861.53;5114288;28;20767;-93
2021/06/08 09:10:22;;;;;;;9.98;7.47;;;;;;;22.43;56.04;98851.16;5113788;28;20465;-92
2021/06/08 09:12:49;;;;;;;121.28;16.13;;;;;;;22.53;57.23;98834.09;5113941;28;20066;-90
2021/06/08 09:15:15;;;;;;;17.58;8.20;;;;;;;22.89;56.24;98840.38;5114670;28;20032;-92
2021/06/08 09:17:42;;;;;;;14.05;7.47;;;;;;;22.69;56.25;98839.19;5117024;28;20044;-93
2021/06/08 09:20:10;;;;;;;12.70;7.78;;;;;;;22.65;55.11;98829.56;5113982;28;20082;-94
2021/06/08 09:22:54;;;;;;;10.00;7.30;;;;;;;22.50;55.70;98842.44;5115653;28;20131;-93
2021/06/08 09:25:45;;;;;;;12.85;7.07;;;;;;;22.98;55.38;98855.09;5114610;28;20036;-94
2021/06/08 09:31:19;;;;;;;12.15;7.63;;;;;;;23.53;54.02;98845.41;5142799;27;20473;-91
2021/06/08 09:33:46;;;;;;;10.18;6.93;;;;;;;23.47;52.57;98843.16;5132795;27;20043;-93
2021/06/08 09:36:14;;;;;;;12.15;7.18;;;;;;;23.70;52.52;98841.34;5134823;27;20103;-92
2021/06/08 09:38:45;;;;;;;13.93;7.03;;;;;;;24.23;51.11;98837.13;5134306;27;20042;-92
2021/06/08 09:41:23;;;;;;;11.40;7.18;;;;;;;23.92;52.59;98821.50;5134285;27;20053;-91
2021/06/08 09:43:58;;;;;;;14.10;7.25;;;;;;;24.43;50.67;98822.75;5130975;28;20035;-92
2021/06/08 09:46:31;;;;;;;12.45;7.40;;;;;;;24.53;50.97;98817.44;5130475;27;20047;-90
2021/06/08 09:48:59;;;;;;;9.85;6.82;;;;;;;24.56;50.41;98828.06;5132618;27;20407;-90
2021/06/08 09:51:26;;;;;;;13.73;8.07;;;;;;;24.00;53.10;98831.72;5135273;27;20130;-92
2021/06/08 09:53:53;;;;;;;14.65;7.50;;;;;;;24.54;49.83;98805.56;5132666;28;20043;-91
2021/06/08 09:56:20;;;;;;;13.55;7.55;;;;;;;24.85;49.90;98811.13;5133488;27;20381;-93
2021/06/08 09:58:47;;;;;;;13.98;6.78;;;;;;;25.26;48.16;98801.28;5130905;27;20043;-90
2021/06/08 10:01:20;;;;;;;9.80;6.93;;;;;;;24.27;49.70;98790.56;5132121;27;20043;-94
2021/06/08 10:03:50;;;;;;;10.68;6.55;;;;;;;24.84;48.53;98803.97;5132658;27;20163;-92
2021/06/08 10:06:18;;;;;;;9.80;6.18;;;;;;;25.06;47.69;98792.09;5132205;27;20362;-91
2021/06/08 10:08:58;;;;;;;12.50;6.80;;;;;;;25.71;46.85;98800.94;5132190;27;20095;-92
2021/06/08 10:11:26;;;;;;;15.60;6.88;;;;;;;25.57;46.90;98797.59;5132940;27;20031;-92
2021/06/08 10:13:58;;;;;;;8.52;6.50;;;;;;;25.38;45.69;98786.59;5131586;27;20050;-92
2021/06/08 10:16:30;;;;;;;9.80;6.95;;;;;;;25.58;45.70;98763.03;5127696;28;20375;-91
2021/06/08 10:18:59;;;;;;;8.25;6.10;;;;;;;26.15;45.07;98788.78;5131586;28;20131;-92
2021/06/08 10:21:46;;;;;;;13.23;6.57;;;;;;;25.68;44.76;98774.84;5132935;27;20035;-93
2021/06/08 10:24:14;;;;;;;8.90;6.70;;;;;;;25.59;46.67;98779.25;5132825;28;20043;-93
2021/06/08 10:26:41;;;;;;;10.15;7.10;;;;;;;25.49;46.60;98777.47;5134230;27;20056;-92
2021/06/08 10:29:10;;;;;;;10.77;6.90;;;;;;;25.15;46.91;98759.50;5132157;27;20043;-92
2021/06/08 10:31:37;;;;;;;8.25;6.30;;;;;;;25.00;46.28;98755.38;5130674;27;20585;-92
2021/06/08 10:34:07;;;;;;;8.68;6.57;;;;;;;25.29;45.65;98761.06;5130268;27;20055;-94
2021/06/08 10:36:34;;;;;;;12.07;6.82;;;;;;;24.98;46.36;98752.81;5133856;27;20061;-94
2021/06/08 10:39:01;;;;;;;8.27;7.18;;;;;;;24.42;48.10;98768.50;5135407;27;20039;-93
2021/06/08 10:41:27;;;;;;;10.00;7.20;;;;;;;24.87;47.85;98738.41;5128042;27;20043;-94
2021/06/08 10:43:53;;;;;;;11.05;6.22;;;;;;;25.38;46.89;98753.94;5117929;28;20496;-92
2021/06/08 10:46:25;;;;;;;8.15;6.32;;;;;;;25.59;45.16;98742.97;5117940;28;20036;-93
2021/06/08 10:48:52;;;;;;;12.18;6.63;;;;;;;26.30;44.58;98733.84;5118989;28;20043;-91
2021/06/08 10:51:21;;;;;;;8.88;6.00;;;;;;;26.45;43.78;98743.34;5119671;28;20043;-93
2021/06/08 10:53:49;;;;;;;11.43;6.50;;;;;;;26.69;43.55;98745.66;5119240;28;20044;-93
2021/06/08 10:56:19;;;;;;;;;;;;;;;27.23;40.78;98746.03;5118631;28;20035;-90
2021/06/08 10:58:48;;;;;;;9.60;6.18;;;;;;;27.04;41.83;98745.06;5116785;28;19920;-89
2021/06/08 11:01:45;;;;;;;7.80;6.05;;;;;;;26.35;42.03;98756.09;5115726;28;20092;-92
2021/06/08 11:04:24;;;;;;;9.63;6.18;;;;;;;25.46;43.32;98756.84;5118423;28;20052;-93
2021/06/08 11:06:55;;;;;;;10.25;5.60;;;;;;;26.03;43.14;98738.13;5117367;28;20047;-92
2021/06/08 11:09:42;;;;;;;8.13;5.50;;;;;;;26.97;41.45;98738.44;5117575;28;20040;-91
2021/06/08 11:12:23;;;;;;;8.30;6.00;;;;;;;26.86;41.05;98722.25;5114781;28;20051;-91
2021/06/08 11:14:59;;;;;;;8.48;5.95;;;;;;;26.83;40.79;98730.72;5117340;28;20058;-92
2021/06/08 11:17:33;;;;;;;8.65;6.20;;;;;;;27.21;40.46;98723.44;5118076;28;20066;-93
2021/06/08 11:20:00;;;;;;;7.95;5.70;;;;;;;26.63;41.46;98705.31;5118616;28;20043;-95
2021/06/08 11:22:54;;;;;;;8.90;6.05;;;;;;;25.85;43.59;98718.84;5118300;28;20177;-95
2021/06/08 11:25:51;;;;;;;8.77;5.93;;;;;;;25.43;43.63;98699.94;5100404;28;20527;-94
2021/06/08 11:28:18;;;;;;;5.85;4.45;;;;;;;26.05;39.28;98681.63;5099158;28;20048;-93
2021/06/08 11:30:54;;;;;;;6.88;5.28;;;;;;;26.16;40.33;98686.94;5117089;28;20048;-94
2021/06/08 11:33:38;;;;;;;8.18;5.32;;;;;;;26.72;39.41;98685.38;5118270;28;20049;-94
2021/06/08 11:36:36;;;;;;;6.95;5.00;;;;;;;27.43;37.24;98671.25;5118502;28;20039;-95
2021/06/08 11:39:30;;;;;;;7.00;4.82;;;;;;;27.98;35.31;98653.97;5116450;28;20051;-93
2021/06/08 11:41:57;;;;;;;7.75;4.95;;;;;;;28.41;35.56;98632.28;5094872;28;20039;-96